createdAt,value
2022-11-20T00:01:20.901Z,99734.47
2022-11-20T00:03:47.569Z,99730.78
2022-11-20T00:06:16.832Z,99730.59
2022-11-20T00:08:43.654Z,99726.28
2022-11-20T00:11:15.789Z,99731.94
2022-11-20T00:13:47.126Z,99735.56
2022-11-20T00:16:15.205Z,99735.88
2022-11-20T00:18:43.273Z,99729.56
2022-11-20T00:21:18.801Z,99733.06
2022-11-20T00:23:45.727Z,99730.88
2022-11-20T00:26:14.868Z,99732.31
2022-11-20T00:28:42.018Z,99732.31
2022-11-20T00:31:11.517Z,99737.13
2022-11-20T00:33:38.082Z,99731.56
2022-11-20T00:36:07.067Z,99728.78
2022-11-20T00:38:33.909Z,99732.53
2022-11-20T00:41:02.184Z,99719.38
2022-11-20T00:43:29.021Z,99719.72
2022-11-20T00:46:02.631Z,99723.75
2022-11-20T00:48:29.563Z,99720.69
2022-11-20T00:50:56.412Z,99719.97
2022-11-20T00:53:22.916Z,99721.50
2022-11-20T00:55:59.505Z,99711.81
2022-11-20T00:58:29.836Z,99713.63
2022-11-20T01:01:07.699Z,99719.47
2022-11-20T01:03:35.658Z,99710.06
2022-11-20T01:06:04.242Z,99705.31
2022-11-20T01:08:32.775Z,99711.13
2022-11-20T01:11:08.547Z,99708.53
2022-11-20T01:13:38.430Z,99697.88
2022-11-20T01:16:13.804Z,99693.91
2022-11-20T01:18:42.440Z,99697.97
2022-11-20T01:21:11.843Z,99691.91
2022-11-20T01:23:39.932Z,99686.75
2022-11-20T01:26:12.291Z,99690.47
2022-11-20T01:28:39.420Z,99691.75
2022-11-20T01:31:27.317Z,99682.56
2022-11-20T01:33:55.697Z,99681.53
2022-11-20T01:36:24.632Z,99684.22
2022-11-20T01:38:59.413Z,99680.09
2022-11-20T01:41:46.084Z,99676.13
2022-11-20T01:44:16.128Z,99689.03
2022-11-20T01:46:53.955Z,99701.81
2022-11-20T01:49:25.494Z,99701.41
2022-11-20T01:51:54.213Z,99702.97
2022-11-20T01:54:26.560Z,99704.78
2022-11-20T01:56:55.436Z,99698.50
2022-11-20T01:59:23.845Z,99688.22
2022-11-20T02:01:50.567Z,99707.47
2022-11-20T02:04:17.694Z,99704.72
2022-11-20T02:06:49.986Z,99705.22
2022-11-20T02:09:17.162Z,99710.06
2022-11-20T02:11:43.752Z,99703.38
2022-11-20T02:14:11.179Z,99697.28
2022-11-20T02:16:41.468Z,99699.28
2022-11-20T02:19:12.806Z,99692.53
2022-11-20T02:22:03.824Z,99691.94
2022-11-20T02:24:30.347Z,99691.13
2022-11-20T02:27:00.972Z,99686.38
2022-11-20T02:29:46.322Z,99688.47
2022-11-20T02:32:24.325Z,99692.53
2022-11-20T02:34:50.947Z,99689.88
2022-11-20T02:37:17.873Z,99674.00
2022-11-20T02:39:45.886Z,99677.94
2022-11-20T02:42:12.637Z,99682.41
2022-11-20T02:44:39.228Z,99675.56
2022-11-20T02:47:05.798Z,99676.97
2022-11-20T02:49:32.491Z,99674.25
2022-11-20T02:51:58.985Z,99675.75
2022-11-20T02:54:25.953Z,99674.00
2022-11-20T02:56:52.868Z,99678.28
2022-11-20T02:59:19.542Z,99671.34
2022-11-20T03:01:46.204Z,99672.97
2022-11-20T03:04:12.739Z,99672.56
2022-11-20T03:06:39.165Z,99666.34
2022-11-20T03:09:05.866Z,99666.59
2022-11-20T03:11:32.501Z,99668.16
2022-11-20T03:13:58.943Z,99669.09
2022-11-20T03:16:25.536Z,99656.41
2022-11-20T03:18:53.876Z,99659.47
2022-11-20T03:21:20.285Z,99657.53
2022-11-20T03:23:46.789Z,99654.00
2022-11-20T03:26:16.863Z,99653.22
2022-11-20T03:28:47.814Z,99656.81
2022-11-20T03:31:15.363Z,99654.28
2022-11-20T03:33:42.955Z,99651.28
2022-11-20T03:36:11.972Z,99650.13
2022-11-20T03:38:38.859Z,99650.53
2022-11-20T03:41:13.810Z,99657.66
2022-11-20T03:43:40.598Z,99662.78
2022-11-20T03:46:07.220Z,99661.53
2022-11-20T03:48:35.914Z,99655.69
2022-11-20T03:51:16.824Z,99656.22
2022-11-20T03:53:45.184Z,99663.94
2022-11-20T03:56:12.815Z,99659.34
2022-11-20T03:58:43.081Z,99663.75
2022-11-20T04:01:34.152Z,99657.31
2022-11-20T04:04:00.750Z,99656.63
2022-11-20T04:06:29.963Z,99662.50
2022-11-20T04:08:57.919Z,99661.28
2022-11-20T04:11:29.587Z,99658.03
2022-11-20T04:14:01.063Z,99670.69
2022-11-20T04:16:30.322Z,99664.13
2022-11-20T04:18:58.556Z,99665.16
2022-11-20T04:21:26.050Z,99666.34
2022-11-20T04:23:56.075Z,99667.31
2022-11-20T04:26:24.384Z,99667.31
2022-11-20T04:28:51.082Z,99662.19
2022-11-20T04:31:19.923Z,99657.31
2022-11-20T04:33:47.024Z,99657.38
2022-11-20T04:36:20.131Z,99667.75
2022-11-20T04:38:48.703Z,99662.19
2022-11-20T04:41:18.924Z,99660.59
2022-11-20T04:43:50.403Z,99654.22
2022-11-20T04:46:18.272Z,99667.09
2022-11-20T04:48:44.771Z,99662.50
2022-11-20T04:51:11.464Z,99667.44
2022-11-20T04:53:37.992Z,99660.94
2022-11-20T04:56:07.355Z,99661.13
2022-11-20T04:58:35.163Z,99660.22
2022-11-20T05:01:06.617Z,99663.00
2022-11-20T05:03:35.538Z,99652.03
2022-11-20T05:06:06.449Z,99652.41
2022-11-20T05:08:34.151Z,99648.03
2022-11-20T05:11:14.714Z,99652.28
2022-11-20T05:13:41.818Z,99647.38
2022-11-20T05:16:10.636Z,99637.72
2022-11-20T05:18:38.089Z,99648.84
2022-11-20T05:21:05.291Z,99641.34
2022-11-20T05:23:32.995Z,99638.88
2022-11-20T05:26:00.124Z,99637.47
2022-11-20T05:28:27.721Z,99638.34
2022-11-20T05:30:54.239Z,99635.97
2022-11-20T05:33:20.991Z,99631.94
2022-11-20T05:35:47.705Z,99626.94
2022-11-20T05:38:14.535Z,99633.19
2022-11-20T05:40:41.186Z,99631.50
2022-11-20T05:43:07.703Z,99632.47
2022-11-20T05:45:35.418Z,99634.41
2022-11-20T05:48:02.156Z,99629.59
2022-11-20T05:50:29.246Z,99621.25
2022-11-20T05:52:56.333Z,99624.88
2022-11-20T05:55:23.122Z,99625.94
2022-11-20T05:57:49.575Z,99625.84
2022-11-20T06:00:16.774Z,99618.44
2022-11-20T06:02:43.558Z,99616.81
2022-11-20T06:05:10.278Z,99612.44
2022-11-20T06:07:36.732Z,99611.84
2022-11-20T06:10:03.748Z,99606.91
2022-11-20T06:12:32.754Z,99607.53
2022-11-20T06:14:59.556Z,99611.63
2022-11-20T06:17:26.209Z,99614.75
2022-11-20T06:19:52.622Z,99613.00
2022-11-20T06:22:19.393Z,99612.16
2022-11-20T06:24:46.070Z,99609.94
2022-11-20T06:27:12.584Z,99597.66
2022-11-20T06:29:39.256Z,99603.00
2022-11-20T06:32:06.091Z,99599.53
2022-11-20T06:34:32.530Z,99604.28
2022-11-20T06:36:59.536Z,99603.06
2022-11-20T06:39:26.294Z,99611.03
2022-11-20T06:41:58.392Z,99614.28
2022-11-20T06:44:25.650Z,99613.59
2022-11-20T06:46:52.231Z,99608.38
2022-11-20T06:49:19.106Z,99602.84
2022-11-20T06:51:45.937Z,99603.50
2022-11-20T06:54:12.494Z,99606.91
2022-11-20T06:56:38.909Z,99606.13
2022-11-20T06:59:07.051Z,99607.28
2022-11-20T07:01:34.073Z,99608.44
2022-11-20T07:04:00.539Z,99598.50
2022-11-20T07:06:27.288Z,99598.44
2022-11-20T07:08:53.945Z,99591.69
2022-11-20T07:11:20.399Z,99595.78
2022-11-20T07:13:46.956Z,99595.97
2022-11-20T07:16:13.743Z,99594.47
2022-11-20T07:18:40.295Z,99599.22
2022-11-20T07:21:08.938Z,99599.41
2022-11-20T07:23:36.001Z,99595.78
2022-11-20T07:26:09.972Z,99596.88
2022-11-20T07:28:36.918Z,99608.03
2022-11-20T07:31:03.889Z,99606.19
2022-11-20T07:33:30.391Z,99612.34
2022-11-20T07:35:57.141Z,99609.22
2022-11-20T07:38:23.709Z,99599.91
2022-11-20T07:40:54.820Z,99611.09
2022-11-20T07:43:21.459Z,99605.53
2022-11-20T07:45:47.887Z,99598.03
2022-11-20T07:48:14.342Z,99598.41
2022-11-20T07:50:41.303Z,99597.34
2022-11-20T07:53:07.938Z,99594.59
2022-11-20T07:55:37.897Z,99596.69
2022-11-20T07:58:04.671Z,99597.38
2022-11-20T08:00:31.657Z,99598.72
2022-11-20T08:02:58.287Z,99589.47
2022-11-20T08:05:24.945Z,99590.16
2022-11-20T08:07:51.385Z,99593.50
2022-11-20T08:10:17.989Z,99589.97
2022-11-20T08:13:07.169Z,99589.44
2022-11-20T08:15:37.248Z,99594.81
2022-11-20T08:18:30.027Z,99604.09
2022-11-20T08:20:55.902Z,99639.19
2022-11-20T08:23:23.858Z,99655.53
2022-11-20T08:26:09.089Z,99678.94
2022-11-20T08:28:41.050Z,99676.16
2022-11-20T08:31:07.570Z,99667.91
2022-11-20T08:33:34.698Z,99651.50
2022-11-20T08:36:05.100Z,99639.88
2022-11-20T08:38:32.204Z,99630.81
2022-11-20T08:41:18.960Z,99625.41
2022-11-20T08:43:45.536Z,99627.59
2022-11-20T08:46:12.412Z,99639.50
2022-11-20T08:48:39.091Z,99644.09
2022-11-20T08:51:05.715Z,99647.84
2022-11-20T08:53:32.526Z,99641.81
2022-11-20T08:55:59.498Z,99640.56
2022-11-20T08:58:26.540Z,99637.72
2022-11-20T09:00:53.361Z,99641.59
2022-11-20T09:03:20.340Z,99637.56
2022-11-20T09:05:46.767Z,99642.63
2022-11-20T09:08:13.264Z,99627.63
2022-11-20T09:10:40.876Z,99620.53
2022-11-20T09:13:10.323Z,99618.88
2022-11-20T09:15:37.664Z,99632.41
2022-11-20T09:18:05.880Z,99624.78
2022-11-20T09:20:32.734Z,99616.72
2022-11-20T09:22:59.306Z,99609.94
2022-11-20T09:25:26.084Z,99597.31
2022-11-20T09:27:59.792Z,99591.47
2022-11-20T09:30:27.082Z,99578.31
2022-11-20T09:32:53.940Z,99567.94
2022-11-20T09:35:20.582Z,99559.91
2022-11-20T09:37:47.317Z,99544.44
2022-11-20T09:40:29.133Z,99551.44
2022-11-20T09:43:14.235Z,99547.31
2022-11-20T09:46:08.446Z,99542.66
2022-11-20T09:48:47.440Z,99534.94
2022-11-20T09:51:36.477Z,99538.84
2022-11-20T09:54:15.268Z,99536.50
2022-11-20T09:56:44.986Z,99526.97
2022-11-20T09:59:50.296Z,99538.91
2022-11-20T10:02:20.702Z,99532.31
2022-11-20T10:04:54.909Z,99525.75
2022-11-20T10:07:33.293Z,99522.63
2022-11-20T10:10:00.991Z,99522.81
2022-11-20T10:12:59.578Z,99526.13
2022-11-20T10:16:07.471Z,99527.72
2022-11-20T10:18:43.286Z,99520.22
2022-11-20T10:21:27.003Z,99516.69
2022-11-20T10:24:20.761Z,99510.25
2022-11-20T10:26:53.683Z,99518.84
2022-11-20T10:29:24.021Z,99502.72
2022-11-20T10:32:16.196Z,99505.75
2022-11-20T10:34:50.712Z,99498.53
2022-11-20T10:37:20.447Z,99497.84
2022-11-20T10:39:58.842Z,99492.44
2022-11-20T10:42:31.669Z,99495.91
2022-11-20T10:45:44.614Z,99493.69
2022-11-20T10:48:16.538Z,99490.97
2022-11-20T10:51:10.087Z,99503.97
2022-11-20T10:54:02.264Z,99505.13
2022-11-20T10:56:36.047Z,99496.63
2022-11-20T10:59:29.026Z,99502.06
2022-11-20T11:02:00.552Z,99504.78
2022-11-20T11:04:35.807Z,99494.94
2022-11-20T11:07:09.528Z,99493.06
2022-11-20T11:09:40.881Z,99490.84
2022-11-20T11:12:09.373Z,99489.66
2022-11-20T11:14:50.892Z,99491.13
2022-11-20T11:17:30.656Z,99495.28
2022-11-20T11:20:12.458Z,99496.69
2022-11-20T11:22:48.974Z,99490.56
2022-11-20T11:25:36.326Z,99488.81
2022-11-20T11:28:21.294Z,99484.22
2022-11-20T11:30:50.296Z,99485.78
2022-11-20T11:33:31.379Z,99484.06
2022-11-20T11:36:04.133Z,99478.84
2022-11-20T11:38:42.284Z,99468.56
2022-11-20T11:41:15.007Z,99469.06
2022-11-20T11:44:10.867Z,99471.78
2022-11-20T11:46:38.014Z,99466.34
2022-11-20T11:49:04.404Z,99464.78
2022-11-20T11:51:35.612Z,99455.78
2022-11-20T11:54:04.941Z,99462.78
2022-11-20T11:56:31.865Z,99454.22
2022-11-20T11:59:02.050Z,99467.13
2022-11-20T12:01:39.834Z,99464.69
2022-11-20T12:04:35.880Z,99459.78
2022-11-20T12:07:31.031Z,99452.00
2022-11-20T12:09:55.495Z,99440.06
2022-11-20T12:12:28.126Z,99446.47
2022-11-20T12:14:55.804Z,99443.44
2022-11-20T12:17:22.281Z,99440.03
2022-11-20T12:19:49.593Z,99438.38
2022-11-20T12:22:37.265Z,99441.81
2022-11-20T12:25:20.881Z,99438.13
2022-11-20T12:28:05.400Z,99423.06
2022-11-20T12:30:35.377Z,99422.47
2022-11-20T12:33:29.936Z,99418.97
2022-11-20T12:36:08.559Z,99414.38
2022-11-20T12:38:59.573Z,99417.09
2022-11-20T12:41:59.511Z,99409.22
2022-11-20T12:45:13.842Z,99407.03
2022-11-20T12:47:45.364Z,99402.34
2022-11-20T12:50:27.406Z,99402.75
2022-11-20T12:52:57.677Z,99405.38
2022-11-20T12:55:52.113Z,99399.06
2022-11-20T12:58:42.103Z,99400.44
2022-11-20T13:01:49.724Z,99396.78
2022-11-20T13:04:49.189Z,99379.00
2022-11-20T13:07:16.444Z,99375.84
2022-11-20T13:09:48.137Z,99369.16
2022-11-20T13:12:19.761Z,99370.00
2022-11-20T13:15:01.462Z,99367.91
2022-11-20T13:18:04.281Z,99372.81
2022-11-20T13:20:31.415Z,99364.03
2022-11-20T13:22:58.787Z,99368.41
2022-11-20T13:25:27.471Z,99364.53
2022-11-20T13:27:54.931Z,99356.16
2022-11-20T13:30:25.989Z,99357.75
2022-11-20T13:33:06.487Z,99359.00
2022-11-20T13:35:38.489Z,99360.13
2022-11-20T13:38:15.629Z,99355.13
2022-11-20T13:40:56.523Z,99354.16
2022-11-20T13:43:40.753Z,99358.88
2022-11-20T13:46:09.305Z,99356.13
2022-11-20T13:48:43.863Z,99346.41
2022-11-20T13:51:38.530Z,99349.25
2022-11-20T13:54:42.592Z,99341.94
2022-11-20T13:57:37.219Z,99332.41
2022-11-20T14:00:14.450Z,99331.34
2022-11-20T14:02:41.652Z,99327.91
2022-11-20T14:05:20.712Z,99326.84
2022-11-20T14:07:48.550Z,99326.72
2022-11-20T14:10:32.289Z,99317.09
2022-11-20T14:12:59.431Z,99315.13
2022-11-20T14:15:32.790Z,99319.19
2022-11-20T14:17:59.877Z,99319.09
2022-11-20T14:20:28.947Z,99323.75
2022-11-20T14:22:56.140Z,99328.38
2022-11-20T14:25:27.783Z,99319.09
2022-11-20T14:27:58.904Z,99325.53
2022-11-20T14:30:27.663Z,99315.00
2022-11-20T14:32:56.714Z,99309.47
2022-11-20T14:35:28.571Z,99310.91
2022-11-20T14:37:56.018Z,99303.16
2022-11-20T14:40:25.140Z,99307.09
2022-11-20T14:42:52.125Z,99308.72
2022-11-20T14:45:19.388Z,99311.94
2022-11-20T14:47:46.260Z,99314.19
2022-11-20T14:50:24.581Z,99313.94
2022-11-20T14:53:01.593Z,99303.25
2022-11-20T14:55:29.420Z,99296.09
2022-11-20T14:57:57.713Z,99292.97
2022-11-20T15:00:24.798Z,99295.66
2022-11-20T15:02:52.643Z,99289.81
2022-11-20T15:05:21.837Z,99286.66
2022-11-20T15:07:51.020Z,99288.59
2022-11-20T15:10:25.375Z,99289.72
2022-11-20T15:12:57.944Z,99292.34
2022-11-20T15:15:31.481Z,99297.00
2022-11-20T15:17:58.659Z,99292.44
2022-11-20T15:20:33.232Z,99293.78
2022-11-20T15:23:00.129Z,99301.09
2022-11-20T15:25:26.794Z,99303.22
2022-11-20T15:27:56.668Z,99300.72
2022-11-20T15:30:24.247Z,99305.94
2022-11-20T15:32:50.738Z,99309.47
2022-11-20T15:35:17.481Z,99312.63
2022-11-20T15:37:44.041Z,99310.59
2022-11-20T15:40:11.142Z,99293.31
2022-11-20T15:42:37.876Z,99289.22
2022-11-20T15:45:04.936Z,99297.97
2022-11-20T15:47:35.654Z,99296.31
2022-11-20T15:50:02.275Z,99297.41
2022-11-20T15:52:36.304Z,99289.59
2022-11-20T15:55:11.030Z,99287.94
2022-11-20T15:57:37.757Z,99284.47
2022-11-20T16:00:04.804Z,99277.47
2022-11-20T16:02:31.844Z,99271.91
2022-11-20T16:04:58.582Z,99276.56
2022-11-20T16:07:25.159Z,99276.59
2022-11-20T16:09:56.816Z,99269.25
2022-11-20T16:12:42.381Z,99268.41
2022-11-20T16:15:28.991Z,99266.63
2022-11-20T16:17:55.535Z,99270.13
2022-11-20T16:20:22.559Z,99274.56
2022-11-20T16:22:50.157Z,99268.81
2022-11-20T16:25:16.957Z,99270.66
2022-11-20T16:27:43.522Z,99271.09
2022-11-20T16:30:11.283Z,99271.84
2022-11-20T16:32:39.596Z,99273.28
2022-11-20T16:35:08.529Z,99275.75
2022-11-20T16:37:38.120Z,99288.38
2022-11-20T16:40:05.209Z,99281.25
2022-11-20T16:42:35.219Z,99280.25
2022-11-20T16:45:01.840Z,99277.84
2022-11-20T16:47:28.481Z,99271.88
2022-11-20T16:49:54.958Z,99272.81
2022-11-20T16:52:21.570Z,99265.75
2022-11-20T16:54:48.114Z,99268.28
2022-11-20T16:57:14.609Z,99262.75
2022-11-20T16:59:41.656Z,99268.13
2022-11-20T17:02:10.566Z,99269.41
2022-11-20T17:04:37.625Z,99270.13
2022-11-20T17:07:08.139Z,99272.72
2022-11-20T17:09:35.642Z,99260.16
2022-11-20T17:12:02.193Z,99263.44
2022-11-20T17:14:28.988Z,99265.34
2022-11-20T17:16:55.515Z,99266.19
2022-11-20T17:19:22.001Z,99273.34
2022-11-20T17:21:48.898Z,99260.91
2022-11-20T17:24:18.405Z,99270.75
2022-11-20T17:26:45.737Z,99267.47
2022-11-20T17:29:15.071Z,99265.78
2022-11-20T17:31:42.560Z,99274.75
2022-11-20T17:34:12.139Z,99265.97
2022-11-20T17:36:45.436Z,99263.69
2022-11-20T17:39:14.072Z,99260.16
2022-11-20T17:41:40.944Z,99255.31
2022-11-20T17:44:10.626Z,99253.47
2022-11-20T17:46:37.239Z,99239.78
2022-11-20T17:49:04.881Z,99244.25
2022-11-20T17:51:33.865Z,99228.63
2022-11-20T17:54:03.490Z,99229.66
2022-11-20T17:56:53.524Z,99237.19
2022-11-20T17:59:20.391Z,99241.38
2022-11-20T18:01:47.277Z,99232.94
2022-11-20T18:04:14.309Z,99230.34
2022-11-20T18:06:41.197Z,99228.13
2022-11-20T18:09:07.805Z,99225.28
2022-11-20T18:11:39.763Z,99224.28
2022-11-20T18:14:29.177Z,99217.59
2022-11-20T18:16:58.094Z,99211.28
2022-11-20T18:19:31.996Z,99204.09
2022-11-20T18:22:01.294Z,99208.69
2022-11-20T18:24:27.901Z,99212.53
2022-11-20T18:26:54.319Z,99210.03
2022-11-20T18:29:21.090Z,99207.28
2022-11-20T18:31:48.778Z,99213.88
2022-11-20T18:34:16.037Z,99213.16
2022-11-20T18:36:43.045Z,99217.72
2022-11-20T18:39:11.922Z,99224.88
2022-11-20T18:41:57.719Z,99215.75
2022-11-20T18:44:46.080Z,99223.94
2022-11-20T18:47:15.792Z,99210.31
2022-11-20T18:49:46.188Z,99212.22
2022-11-20T18:52:13.336Z,99211.16
2022-11-20T18:54:39.838Z,99206.31
2022-11-20T18:57:06.578Z,99215.50
2022-11-20T18:59:33.223Z,99198.25
2022-11-20T19:01:59.827Z,99198.81
2022-11-20T19:04:27.017Z,99189.72
2022-11-20T19:06:56.211Z,99177.41
2022-11-20T19:09:23.865Z,99180.28
2022-11-20T19:11:50.946Z,99176.66
2022-11-20T19:14:17.421Z,99171.13
2022-11-20T19:16:43.884Z,99157.97
2022-11-20T19:19:10.745Z,99158.47
2022-11-20T19:21:37.306Z,99158.47
2022-11-20T19:24:04.402Z,99161.25
2022-11-20T19:26:31.491Z,99156.25
2022-11-20T19:28:58.872Z,99152.63
2022-11-20T19:31:29.277Z,99154.22
2022-11-20T19:33:59.394Z,99151.44
2022-11-20T19:36:28.704Z,99147.34
2022-11-20T19:38:55.813Z,99140.78
2022-11-20T19:41:29.072Z,99141.03
2022-11-20T19:43:57.656Z,99139.72
2022-11-20T19:46:25.373Z,99133.75
2022-11-20T19:48:52.317Z,99135.97
2022-11-20T19:51:21.222Z,99136.78
2022-11-20T19:53:48.222Z,99131.09
2022-11-20T19:56:14.963Z,99127.59
2022-11-20T19:58:41.907Z,99126.56
2022-11-20T20:01:10.530Z,99133.59
2022-11-20T20:03:37.807Z,99138.44
2022-11-20T20:06:05.165Z,99136.72
2022-11-20T20:08:31.841Z,99128.91
2022-11-20T20:10:59.767Z,99128.41
2022-11-20T20:13:27.019Z,99126.38
2022-11-20T20:15:53.564Z,99131.25
2022-11-20T20:18:20.016Z,99130.00
2022-11-20T20:20:46.519Z,99135.59
2022-11-20T20:23:13.045Z,99138.59
2022-11-20T20:25:39.495Z,99135.50
2022-11-20T20:28:05.939Z,99136.41
2022-11-20T20:30:32.427Z,99137.06
2022-11-20T20:32:58.983Z,99140.25
2022-11-20T20:35:25.644Z,99140.72
2022-11-20T20:37:52.265Z,99138.44
2022-11-20T20:40:19.272Z,99135.56
2022-11-20T20:42:45.844Z,99136.34
2022-11-20T20:45:12.419Z,99132.28
2022-11-20T20:47:40.505Z,99132.75
2022-11-20T20:50:09.857Z,99138.84
2022-11-20T20:52:36.611Z,99119.97
2022-11-20T20:55:03.777Z,99128.28
2022-11-20T20:57:30.533Z,99122.47
2022-11-20T20:59:57.130Z,99124.88
2022-11-20T21:02:23.979Z,99121.41
2022-11-20T21:04:50.902Z,99117.34
2022-11-20T21:07:17.892Z,99118.41
2022-11-20T21:09:44.629Z,99115.88
2022-11-20T21:12:11.745Z,99118.41
2022-11-20T21:14:38.319Z,99117.59
2022-11-20T21:17:04.956Z,99109.38
2022-11-20T21:19:32.316Z,99112.44
2022-11-20T21:21:59.007Z,99118.03
2022-11-20T21:24:30.691Z,99110.53
2022-11-20T21:26:57.745Z,99117.09
2022-11-20T21:29:25.550Z,99112.66
2022-11-20T21:31:53.301Z,99107.66
2022-11-20T21:34:21.034Z,99114.50
2022-11-20T21:36:48.038Z,99112.47
2022-11-20T21:39:15.550Z,99114.03
2022-11-20T21:41:42.183Z,99125.31
2022-11-20T21:46:59.036Z,99118.59
2022-11-20T21:49:25.822Z,99124.28
2022-11-20T21:51:53.717Z,99124.91
2022-11-20T21:54:20.283Z,99127.25
2022-11-20T21:56:46.807Z,99131.63
2022-11-20T21:59:13.972Z,99135.34
2022-11-20T22:01:40.550Z,99127.53
2022-11-20T22:04:08.120Z,99121.22
2022-11-20T22:06:37.680Z,99123.47
2022-11-20T22:09:04.250Z,99125.69
2022-11-20T22:11:30.880Z,99127.31
2022-11-20T22:14:16.107Z,99129.78
2022-11-20T22:16:42.543Z,99132.00
2022-11-20T22:19:09.293Z,99128.28
2022-11-20T22:21:36.058Z,99131.34
2022-11-20T22:24:02.728Z,99129.78
2022-11-20T22:26:35.004Z,99126.22
2022-11-20T22:29:05.357Z,99122.31
2022-11-20T22:31:31.923Z,99123.06
2022-11-20T22:33:59.319Z,99123.81
2022-11-20T22:36:28.456Z,99122.84
2022-11-20T22:38:55.350Z,99124.00
2022-11-20T22:41:27.372Z,99121.69
2022-11-20T22:43:56.358Z,99118.19
2022-11-20T22:46:22.923Z,99117.28
2022-11-20T22:48:50.463Z,99115.03
2022-11-20T22:51:17.916Z,99113.19
2022-11-20T22:53:44.675Z,99114.69
2022-11-20T22:56:12.572Z,99104.44
2022-11-20T22:58:40.530Z,99114.84
2022-11-20T23:01:35.153Z,99112.97
2022-11-20T23:04:04.143Z,99115.69
2022-11-20T23:06:34.244Z,99107.56
2022-11-20T23:09:00.929Z,99112.78
2022-11-20T23:11:28.855Z,99116.53
2022-11-20T23:14:15.202Z,99123.56
2022-11-20T23:16:41.858Z,99120.22
2022-11-20T23:19:11.127Z,99111.03
2022-11-20T23:21:39.196Z,99112.41
2022-11-20T23:24:06.186Z,99123.44
2022-11-20T23:26:35.068Z,99125.72
2022-11-20T23:29:01.814Z,99129.84
2022-11-20T23:31:29.714Z,99127.31
2022-11-20T23:33:56.364Z,99132.88
2022-11-20T23:36:22.942Z,99144.06
2022-11-20T23:38:49.682Z,99139.94
2022-11-20T23:41:16.532Z,99130.66
2022-11-20T23:43:43.043Z,99132.44
2022-11-20T23:46:15.089Z,99138.38
2022-11-20T23:48:43.109Z,99139.63
2022-11-20T23:51:09.576Z,99133.09
2022-11-20T23:53:36.240Z,99136.59
2022-11-20T23:56:04.899Z,99137.88
2022-11-20T23:58:36.743Z,99129.63
